Time;durP1;ratioP1;P1;durP2;ratioP2;P2;SDS_P1;SDS_P2;PMS_P1;PMS_P2;Temp;Humidity;BMP_temperature;BMP_pressure;BME280_temperature;BME280_humidity;BME280_pressure;Samples;Min_cycle;Max_cycle;Signal;HPM_P1;HPM_P2
2023/06/19 00:00:30;;;;;;;9.00;8.43;;;;;;;22.25;85.70;98088.84;4144379;28;20240;-51
2023/06/19 00:02:32;;;;;;;9.32;8.73;;;;;;;22.23;86.17;98091.16;4139947;28;20225;-52
2023/06/19 00:04:34;;;;;;;8.00;7.40;;;;;;;22.02;86.54;98095.81;4155543;28;20228;-51
2023/06/19 00:06:36;;;;;;;8.73;8.13;;;;;;;22.15;85.51;98089.19;4140011;28;20577;-51
2023/06/19 00:08:41;;;;;;;8.48;7.78;;;;;;;22.02;86.06;98084.66;4151671;28;20212;-51
2023/06/19 00:10:42;;;;;;;8.48;7.88;;;;;;;22.08;86.07;98078.59;4138356;28;20216;-51
2023/06/19 00:12:44;;;;;;;9.27;8.57;;;;;;;21.87;87.32;98066.56;4139456;28;20803;-52
2023/06/19 00:14:46;;;;;;;9.70;9.10;;;;;;;21.59;88.72;98070.84;4154093;28;20271;-51
2023/06/19 00:16:50;;;;;;;9.48;8.57;;;;;;;21.81;87.96;98072.63;4142196;28;20255;-51
2023/06/19 00:18:55;;;;;;;8.43;7.93;;;;;;;21.88;87.32;98079.31;4138086;28;20652;-51
2023/06/19 00:20:57;;;;;;;9.65;7.65;;;;;;;21.89;86.44;98074.56;4142766;28;20216;-51
2023/06/19 00:22:58;;;;;;;8.43;7.82;;;;;;;22.06;85.73;98085.66;4140776;28;20209;-51
2023/06/19 00:25:00;;;;;;;7.70;7.10;;;;;;;22.10;84.82;98086.63;4152596;28;20287;-51
2023/06/19 00:27:02;;;;;;;7.18;6.68;;;;;;;22.17;84.10;98086.91;4144991;28;20212;-51
2023/06/19 00:29:04;;;;;;;7.90;7.40;;;;;;;22.20;83.59;98098.22;4152125;28;20235;-52
2023/06/19 00:31:06;;;;;;;7.90;7.35;;;;;;;22.28;83.40;98110.47;4137046;28;20253;-54
2023/06/19 00:33:08;;;;;;;6.93;6.43;;;;;;;22.17;83.43;98109.22;4167431;28;20220;-50
2023/06/19 00:35:10;;;;;;;7.53;7.03;;;;;;;21.76;84.13;98109.84;4143878;28;20228;-51
2023/06/19 00:37:13;;;;;;;7.80;7.20;;;;;;;21.52;85.72;98103.97;4145531;28;20671;-51
2023/06/19 00:39:14;;;;;;;8.13;6.55;;;;;;;21.63;85.58;98110.03;4168781;28;20215;-51
2023/06/19 00:41:16;;;;;;;7.07;6.57;;;;;;;21.41;87.25;98107.44;4136969;28;20239;-52
2023/06/19 00:43:18;;;;;;;8.82;8.07;;;;;;;21.24;90.00;98113.84;4143719;28;20219;-51
2023/06/19 00:45:20;;;;;;;9.13;8.32;;;;;;;21.01;92.35;98125.47;4138508;28;20374;-51
2023/06/19 00:47:22;;;;;;;9.05;8.15;;;;;;;21.10;92.21;98124.31;4169194;28;20779;-52
2023/06/19 00:49:26;;;;;;;9.35;8.65;;;;;;;21.03;92.64;98125.94;4143928;28;20251;-52
2023/06/19 00:51:27;;;;;;;8.77;8.18;;;;;;;21.08;91.99;98137.75;4145597;28;20223;-50
2023/06/19 00:53:30;;;;;;;8.38;7.80;;;;;;;21.12;91.54;98138.72;4168681;28;20207;-51
2023/06/19 00:55:33;;;;;;;9.32;8.63;;;;;;;20.94;92.32;98137.09;4138418;28;20257;-50
2023/06/19 00:57:35;;;;;;;8.48;7.88;;;;;;;21.01;92.63;98142.16;4141188;28;20209;-51
2023/06/19 00:59:38;;;;;;;8.27;7.78;;;;;;;21.15;91.03;98142.81;4136286;28;20306;-51
2023/06/19 01:01:39;;;;;;;7.22;6.72;;;;;;;21.14;89.57;98138.41;4135916;28;20215;-52
2023/06/19 01:03:41;;;;;;;6.82;6.43;;;;;;;21.04;89.51;98135.97;4144191;28;20207;-51
2023/06/19 01:05:47;;;;;;;6.50;6.00;;;;;;;21.01;89.42;98136.59;4119086;28;20374;-51
2023/06/19 01:08:10;;;;;;;10.55;6.50;;;;;;;21.04;88.78;98136.75;4168256;28;20673;-50
2023/06/19 01:10:16;;;;;;;8.48;6.68;;;;;;;21.05;88.98;98145.94;4143249;28;20213;-51
2023/06/19 01:12:23;;;;;;;6.40;6.00;;;;;;;21.08;89.04;98131.34;4144974;28;20239;-51
2023/06/19 01:14:28;;;;;;;5.85;5.45;;;;;;;21.00;88.95;98134.97;4138364;28;20235;-50
2023/06/19 01:16:30;;;;;;;6.28;5.88;;;;;;;21.06;88.94;98128.09;4136949;28;20214;-51
2023/06/19 01:18:32;;;;;;;5.47;5.07;;;;;;;21.02;88.88;98125.13;4141785;28;20197;-51
2023/06/19 01:20:34;;;;;;;7.90;6.00;;;;;;;21.02;88.66;98115.97;4173078;28;20303;-51
2023/06/19 01:22:36;;;;;;;5.30;4.97;;;;;;;20.90;89.23;98107.47;4155276;28;20648;-50
2023/06/19 01:24:38;;;;;;;5.63;5.22;;;;;;;21.01;88.68;98108.75;4141212;28;20279;-50
2023/06/19 01:26:40;;;;;;;5.18;4.78;;;;;;;21.08;88.30;98117.44;4141915;28;20272;-50
2023/06/19 01:28:43;;;;;;;5.20;4.80;;;;;;;21.13;88.06;98106.16;4144285;28;20697;-51
2023/06/19 01:30:46;;;;;;;4.43;4.03;;;;;;;21.26;86.83;98102.38;4135507;28;20578;-50
2023/06/19 01:33:09;;;;;;;5.22;4.82;;;;;;;21.19;87.08;98110.41;4127197;28;20210;-50
2023/06/19 01:35:13;;;;;;;3.88;3.63;;;;;;;21.37;86.16;98112.03;4133495;28;20233;-51
2023/06/19 01:37:15;;;;;;;3.78;3.13;;;;;;;21.47;85.61;98114.47;4134959;28;20205;-50
2023/06/19 01:39:18;;;;;;;4.45;4.07;;;;;;;21.48;85.45;98124.44;4135037;28;20248;-51
2023/06/19 01:41:21;;;;;;;3.40;3.20;;;;;;;21.59;85.07;98128.53;4153093;28;20262;-50
2023/06/19 01:43:24;;;;;;;4.25;3.95;;;;;;;21.54;85.72;98117.56;4151866;28;20223;-51
2023/06/19 01:45:25;;;;;;;3.45;3.15;;;;;;;21.49;85.23;98121.34;4139565;28;20255;-51
2023/06/19 01:47:27;;;;;;;3.70;3.40;;;;;;;21.37;85.51;98129.53;4139567;28;20209;-51
2023/06/19 01:49:29;;;;;;;3.75;3.45;;;;;;;21.23;86.43;98128.91;4139831;28;20215;-50
2023/06/19 01:51:31;;;;;;;3.35;3.15;;;;;;;21.18;86.28;98108.78;4151423;28;20251;-51
2023/06/19 01:53:33;;;;;;;3.35;3.13;;;;;;;21.22;85.71;98118.09;4141665;28;20263;-51
2023/06/19 01:55:35;;;;;;;2.40;2.20;;;;;;;21.20;85.59;98123.19;4167734;28;20333;-51
2023/06/19 01:57:37;;;;;;;2.80;2.60;;;;;;;21.19;85.59;98136.25;4142543;28;20662;-51
2023/06/19 01:59:39;;;;;;;2.85;2.65;;;;;;;21.13;85.86;98145.13;4149120;28;20731;-51
2023/06/19 02:01:40;;;;;;;6.53;3.90;;;;;;;21.07;86.83;98135.28;4140873;28;20273;-50
2023/06/19 02:03:42;;;;;;;3.22;3.03;;;;;;;21.21;85.90;98141.50;4139659;28;20757;-50
2023/06/19 02:05:44;;;;;;;3.38;3.17;;;;;;;21.24;85.78;98129.72;4141852;28;20232;-51
2023/06/19 02:07:46;;;;;;;3.35;3.05;;;;;;;21.30;85.73;98134.78;4142395;28;20205;-50
2023/06/19 02:09:47;;;;;;;3.25;3.05;;;;;;;21.27;85.95;98124.31;4136642;28;20216;-51
2023/06/19 02:11:49;;;;;;;3.45;2.38;;;;;;;21.20;86.16;98132.34;4142489;28;20777;-51
2023/06/19 02:13:51;;;;;;;4.03;2.72;;;;;;;21.39;85.39;98148.72;4146376;28;20259;-53
2023/06/19 02:15:53;;;;;;;3.17;2.92;;;;;;;21.16;86.49;98134.16;4166865;28;20262;-51
2023/06/19 02:17:58;;;;;;;2.85;2.65;;;;;;;21.13;86.94;98147.91;4135303;28;20213;-52
2023/06/19 02:19:59;;;;;;;3.17;2.50;;;;;;;21.09;87.19;98147.72;4167104;28;20208;-51
2023/06/19 02:22:01;;;;;;;2.72;2.53;;;;;;;21.16;86.67;98144.44;4138268;28;20313;-51
2023/06/19 02:24:04;;;;;;;2.80;2.60;;;;;;;21.05;87.51;98148.72;4138650;28;20209;-52
2023/06/19 02:26:06;;;;;;;2.22;2.05;;;;;;;21.24;86.34;98143.66;4151060;28;20674;-51
2023/06/19 02:28:08;;;;;;;2.88;2.67;;;;;;;21.09;86.23;98144.13;4142934;28;20205;-52
2023/06/19 02:30:10;;;;;;;2.65;2.42;;;;;;;21.00;85.56;98151.66;4134513;28;20217;-51
2023/06/19 02:32:11;;;;;;;2.55;2.35;;;;;;;21.03;85.08;98151.81;4152996;28;20247;-51
2023/06/19 02:34:13;;;;;;;1.80;1.70;;;;;;;20.97;83.79;98169.00;4142331;28;20355;-54
2023/06/19 02:36:19;;;;;;;2.08;1.98;;;;;;;21.00;83.93;98168.34;4165991;28;20243;-51
2023/06/19 02:38:21;;;;;;;2.45;2.25;;;;;;;20.90;83.60;98179.81;4138878;28;20213;-51
2023/06/19 02:40:23;;;;;;;2.03;1.92;;;;;;;20.97;83.58;98178.16;4169377;28;20211;-50
2023/06/19 02:42:25;;;;;;;2.00;1.80;;;;;;;21.04;83.87;98172.13;4143393;28;20243;-51
2023/06/19 02:44:26;;;;;;;1.80;1.70;;;;;;;21.02;84.47;98182.75;4142582;28;20233;-50
2023/06/19 02:46:28;;;;;;;2.50;2.20;;;;;;;21.13;84.04;98184.06;4147408;28;20863;-51
2023/06/19 02:48:30;;;;;;;2.10;2.00;;;;;;;21.06;84.64;98192.09;4142932;28;20592;-51
2023/06/19 02:50:32;;;;;;;2.90;2.70;;;;;;;20.95;84.95;98193.53;4171374;28;20208;-52
2023/06/19 02:52:33;;;;;;;2.38;2.10;;;;;;;20.63;86.66;98202.25;4154586;28;20238;-50
2023/06/19 02:54:35;;;;;;;2.92;2.10;;;;;;;20.81;85.65;98209.53;4129251;28;20233;-51
2023/06/19 02:56:38;;;;;;;2.80;1.88;;;;;;;20.91;85.40;98203.69;4172591;28;20811;-50
2023/06/19 02:58:40;;;;;;;2.00;1.90;;;;;;;20.68;86.29;98210.47;4139437;28;20201;-51
2023/06/19 03:00:43;;;;;;;2.45;2.25;;;;;;;20.70;86.52;98208.19;4170627;28;20257;-53
2023/06/19 03:02:45;;;;;;;1.92;1.83;;;;;;;20.68;86.68;98216.03;4169434;28;20246;-51
2023/06/19 03:04:47;;;;;;;2.65;1.80;;;;;;;20.74;86.38;98217.53;4144509;28;20221;-53
2023/06/19 03:06:49;;;;;;;2.20;2.05;;;;;;;20.73;86.39;98224.22;4170025;28;20213;-51
2023/06/19 03:08:51;;;;;;;2.92;1.85;;;;;;;20.70;86.71;98213.75;4140625;28;20680;-52
2023/06/19 03:10:53;;;;;;;2.45;2.25;;;;;;;20.74;86.57;98225.88;4140289;28;20280;-51
2023/06/19 03:12:55;;;;;;;2.63;2.10;;;;;;;20.78;86.15;98232.44;4156058;28;20204;-53
2023/06/19 03:14:56;;;;;;;2.83;2.63;;;;;;;20.72;86.69;98228.16;4130576;28;20237;-51
2023/06/19 03:16:58;;;;;;;1.77;1.67;;;;;;;20.53;87.67;98236.75;4155607;28;20240;-51
2023/06/19 03:19:00;;;;;;;2.15;1.95;;;;;;;20.42;88.87;98218.72;4155535;28;20532;-51
2023/06/19 03:21:02;;;;;;;2.38;1.98;;;;;;;20.50;88.25;98233.81;4169320;28;20215;-51
2023/06/19 03:23:04;;;;;;;5.50;2.35;;;;;;;20.41;89.22;98230.97;4144689;28;20212;-53
2023/06/19 03:25:06;;;;;;;1.88;1.77;;;;;;;20.28;90.13;98234.69;4146269;28;20647;-53
2023/06/19 03:27:08;;;;;;;1.80;1.70;;;;;;;20.25;90.82;98234.50;4145281;28;20239;-54
2023/06/19 03:29:09;;;;;;;1.67;1.58;;;;;;;20.41;89.63;98230.16;4144529;28;20205;-51
2023/06/19 03:31:11;;;;;;;2.05;1.83;;;;;;;20.44;90.40;98243.44;4144624;28;20227;-52
2023/06/19 03:33:13;;;;;;;1.92;1.70;;;;;;;20.29;91.38;98241.03;4167514;28;20223;-51
2023/06/19 03:35:14;;;;;;;2.97;2.10;;;;;;;20.37;91.03;98243.06;4127605;28;20233;-52
2023/06/19 03:37:17;;;;;;;2.33;2.13;;;;;;;20.31;91.91;98249.91;4138802;28;20618;-53
2023/06/19 03:39:19;;;;;;;1.92;1.83;;;;;;;20.24;92.21;98255.91;4143622;28;20205;-51
2023/06/19 03:41:20;;;;;;;1.98;1.83;;;;;;;20.21;92.53;98244.59;4137985;28;20204;-52
2023/06/19 03:43:22;;;;;;;2.67;2.00;;;;;;;20.06;93.68;98242.25;4168893;28;21057;-51
2023/06/19 03:45:24;;;;;;;4.35;1.88;;;;;;;20.16;93.19;98247.50;4134820;28;20228;-50
2023/06/19 03:47:26;;;;;;;1.90;1.80;;;;;;;20.22;93.00;98251.78;4150378;28;20201;-52
2023/06/19 03:49:28;;;;;;;2.30;2.10;;;;;;;20.39;91.59;98263.03;4141045;28;20210;-51
2023/06/19 03:51:30;;;;;;;1.95;1.77;;;;;;;20.43;91.79;98258.44;4143896;28;20205;-51
2023/06/19 03:53:32;;;;;;;2.22;2.03;;;;;;;20.47;91.72;98253.91;4139335;28;20204;-53
2023/06/19 03:55:34;;;;;;;2.13;1.83;;;;;;;20.38;92.33;98255.81;4133622;28;22059;-51
2023/06/19 03:57:36;;;;;;;2.78;2.45;;;;;;;20.36;92.64;98263.63;4137489;28;20210;-50
2023/06/19 03:59:38;;;;;;;2.50;2.30;;;;;;;20.39;92.12;98268.56;4168091;28;20246;-51
2023/06/19 04:01:40;;;;;;;2.05;1.88;;;;;;;20.28;93.61;98262.47;4152348;28;20200;-51
2023/06/19 04:03:42;;;;;;;3.38;1.90;;;;;;;20.30;93.53;98267.72;4140658;28;20228;-50
2023/06/19 04:05:44;;;;;;;2.22;2.03;;;;;;;20.40;92.82;98275.78;4142736;28;20591;-51
2023/06/19 04:07:46;;;;;;;1.70;1.60;;;;;;;20.42;92.76;98279.06;4145529;28;20235;-51
2023/06/19 04:09:48;;;;;;;2.17;1.98;;;;;;;20.50;92.75;98281.06;4144887;28;20254;-52
2023/06/19 04:11:49;;;;;;;4.25;2.20;;;;;;;20.55;92.81;98280.91;4167723;28;20200;-51
2023/06/19 04:13:51;;;;;;;3.38;1.80;;;;;;;20.46;93.20;98280.06;4145331;28;20251;-51
2023/06/19 04:15:52;;;;;;;3.05;2.85;;;;;;;20.55;92.39;98284.53;4166214;28;20694;-51
2023/06/19 04:17:54;;;;;;;2.08;1.88;;;;;;;20.63;91.88;98280.13;4169479;28;20745;-52
2023/06/19 04:19:56;;;;;;;2.30;2.10;;;;;;;20.64;92.04;98279.00;4126409;28;20218;-51
2023/06/19 04:21:58;;;;;;;2.92;2.38;;;;;;;20.60;92.44;98269.66;4167850;28;20208;-50
2023/06/19 04:23:59;;;;;;;3.05;2.40;;;;;;;20.61;92.54;98266.56;4142370;28;20650;-51
2023/06/19 04:26:02;;;;;;;2.60;1.92;;;;;;;20.61;92.19;98277.69;4142571;28;20240;-51
2023/06/19 04:28:04;;;;;;;2.55;2.35;;;;;;;20.23;95.39;98267.34;4136127;28;20267;-50
2023/06/19 04:30:06;;;;;;;3.67;2.75;;;;;;;20.30;95.16;98273.28;4136338;28;20205;-51
2023/06/19 04:32:11;;;;;;;2.20;2.00;;;;;;;20.34;95.05;98271.50;4169854;28;20208;-54
2023/06/19 04:34:18;;;;;;;2.25;2.05;;;;;;;20.26;95.93;98283.38;4141972;28;20209;-52
2023/06/19 04:36:20;;;;;;;6.20;2.40;;;;;;;20.36;95.42;98281.16;4143216;28;20197;-51
2023/06/19 04:38:23;;;;;;;3.03;2.72;;;;;;;20.20;96.87;98282.72;4140165;28;20255;-51
2023/06/19 04:40:25;;;;;;;3.95;2.97;;;;;;;20.30;96.27;98270.50;4170151;28;20623;-51
2023/06/19 04:42:27;;;;;;;2.33;1.90;;;;;;;20.21;96.87;98280.72;4143421;28;21974;-52
2023/06/19 04:44:33;;;;;;;2.22;2.10;;;;;;;20.14;97.38;98269.25;4167974;28;20235;-50
2023/06/19 04:46:36;;;;;;;2.75;2.53;;;;;;;20.26;96.80;98266.72;4141148;28;20212;-52
2023/06/19 04:48:39;;;;;;;4.32;2.85;;;;;;;19.91;99.13;98273.97;4136114;28;20720;-51
2023/06/19 04:50:41;;;;;;;2.70;2.50;;;;;;;20.02;98.46;98269.81;4152872;28;20690;-51
2023/06/19 04:52:43;;;;;;;2.85;2.65;;;;;;;19.94;99.24;98269.75;4143175;28;20244;-51
2023/06/19 04:54:44;;;;;;;2.70;2.50;;;;;;;19.90;99.70;98271.53;4140901;28;20731;-51
2023/06/19 04:56:46;;;;;;;2.55;2.35;;;;;;;19.90;99.92;98268.75;4137785;28;20209;-50
2023/06/19 04:58:48;;;;;;;3.63;2.95;;;;;;;19.97;99.86;98266.34;4150026;28;20200;-50
2023/06/19 05:00:51;;;;;;;2.92;2.72;;;;;;;20.02;99.37;98267.03;4169432;28;20212;-52
2023/06/19 05:02:52;;;;;;;6.78;3.33;;;;;;;20.09;99.31;98269.38;4134751;28;20241;-51
2023/06/19 05:04:54;;;;;;;3.15;2.75;;;;;;;19.99;100.00;98264.06;4149089;28;20243;-52
2023/06/19 05:06:56;;;;;;;2.80;2.42;;;;;;;19.98;100.00;98265.19;4167383;28;20250;-52
2023/06/19 05:08:57;;;;;;;4.00;3.60;;;;;;;20.02;100.00;98278.13;4169091;28;20220;-51
2023/06/19 05:10:59;;;;;;;2.92;2.72;;;;;;;19.98;100.00;98273.53;4135309;28;20298;-50
2023/06/19 05:13:01;;;;;;;2.80;2.60;;;;;;;19.96;100.00;98287.72;4138589;28;20209;-51
2023/06/19 05:15:07;;;;;;;4.35;2.80;;;;;;;20.03;100.00;98282.56;4168190;28;20310;-51
2023/06/19 05:17:09;;;;;;;3.13;2.78;;;;;;;20.02;100.00;98283.69;4151497;28;20201;-50
2023/06/19 05:19:11;;;;;;;3.40;3.10;;;;;;;20.09;100.00;98274.94;4151048;28;20639;-51
2023/06/19 05:21:13;;;;;;;3.33;2.70;;;;;;;20.12;100.00;98277.09;4142325;28;20667;-52
2023/06/19 05:23:14;;;;;;;3.20;3.00;;;;;;;20.06;100.00;98283.91;4154782;28;20209;-51
2023/06/19 05:25:16;;;;;;;4.18;3.80;;;;;;;20.07;100.00;98282.78;4167423;28;20641;-53
2023/06/19 05:27:18;;;;;;;3.17;2.88;;;;;;;20.24;100.00;98280.13;4139811;28;20206;-50
2023/06/19 05:29:19;;;;;;;5.28;2.90;;;;;;;20.22;100.00;98283.19;4140165;28;20205;-52
2023/06/19 05:31:21;;;;;;;3.17;2.72;;;;;;;20.17;100.00;98282.53;4134122;28;20739;-51
2023/06/19 05:33:25;;;;;;;3.13;2.85;;;;;;;20.07;100.00;98283.59;4143834;28;20303;-50
2023/06/19 05:35:27;;;;;;;2.97;2.78;;;;;;;20.19;100.00;98286.59;4139220;28;20244;-50
2023/06/19 05:37:29;;;;;;;3.85;3.55;;;;;;;20.18;100.00;98284.16;4156598;28;20244;-50
2023/06/19 05:39:30;;;;;;;3.20;2.90;;;;;;;20.34;100.00;98282.59;4138584;28;20227;-50
2023/06/19 05:41:32;;;;;;;2.90;2.70;;;;;;;20.21;100.00;98294.63;4138102;28;20213;-50
2023/06/19 05:43:34;;;;;;;3.20;3.00;;;;;;;20.28;100.00;98289.44;4151851;28;20208;-51
2023/06/19 05:45:36;;;;;;;4.97;3.20;;;;;;;20.44;100.00;98276.78;4142489;28;20238;-50
2023/06/19 05:47:38;;;;;;;4.22;3.65;;;;;;;20.66;99.95;98273.94;4153591;28;20291;-50
2023/06/19 05:49:40;;;;;;;4.15;3.83;;;;;;;20.71;98.51;98282.16;4159044;28;20209;-51
2023/06/19 05:51:43;;;;;;;4.22;3.78;;;;;;;20.83;98.17;98263.69;4166762;28;20205;-51
2023/06/19 05:53:45;;;;;;;3.20;2.72;;;;;;;20.92;97.61;98269.31;4153464;28;20260;-50
2023/06/19 05:55:49;;;;;;;3.80;3.50;;;;;;;20.85;98.03;98274.50;4139437;28;20236;-51
2023/06/19 05:57:51;;;;;;;3.35;3.05;;;;;;;21.01;97.60;98264.59;4154060;28;20211;-51
2023/06/19 05:59:53;;;;;;;3.30;3.10;;;;;;;21.12;96.90;98285.41;4167087;28;20242;-53
2023/06/19 06:01:55;;;;;;;3.42;3.17;;;;;;;20.89;97.54;98284.69;4164893;28;20208;-49
2023/06/19 06:03:57;;;;;;;4.07;3.67;;;;;;;21.03;97.36;98282.59;4134331;28;20204;-49
2023/06/19 06:06:02;;;;;;;3.67;3.17;;;;;;;21.15;96.97;98288.38;4167351;28;20232;-49
2023/06/19 06:08:04;;;;;;;3.53;3.33;;;;;;;20.96;97.59;98284.22;4135985;28;20211;-49
2023/06/19 06:10:06;;;;;;;4.38;3.78;;;;;;;20.89;97.98;98283.88;4135303;28;20223;-50
2023/06/19 06:12:11;;;;;;;3.75;2.90;;;;;;;21.03;97.72;98281.78;4122840;28;20763;-50
2023/06/19 06:14:15;;;;;;;3.80;3.55;;;;;;;21.12;97.53;98282.63;4132465;28;20216;-50
2023/06/19 06:16:18;;;;;;;3.45;3.20;;;;;;;21.21;96.56;98286.25;4152050;28;20223;-50
2023/06/19 06:18:20;;;;;;;5.35;3.33;;;;;;;21.44;95.94;98291.38;4166724;28;20254;-51
2023/06/19 06:20:21;;;;;;;3.83;3.53;;;;;;;21.34;95.47;98296.44;4136557;28;20240;-51
2023/06/19 06:22:24;;;;;;;2.97;2.78;;;;;;;21.12;96.96;98302.13;4136981;28;20232;-49
2023/06/19 06:24:25;;;;;;;4.10;3.80;;;;;;;21.23;96.57;98306.25;4136732;28;20259;-50
2023/06/19 06:26:27;;;;;;;3.72;3.40;;;;;;;21.24;95.92;98307.88;4151831;28;20200;-49
2023/06/19 06:28:29;;;;;;;4.10;3.47;;;;;;;21.39;95.75;98315.78;4138681;28;20243;-49
2023/06/19 06:30:31;;;;;;;3.45;3.15;;;;;;;21.24;95.73;98319.03;4148720;28;22522;-50
2023/06/19 06:32:33;;;;;;;3.33;3.03;;;;;;;21.27;95.41;98312.78;4138730;28;20212;-50
2023/06/19 06:34:35;;;;;;;4.13;3.72;;;;;;;21.16;96.27;98305.88;4152081;28;20690;-50
2023/06/19 06:36:37;;;;;;;4.32;3.42;;;;;;;21.30;95.63;98312.97;4136581;28;20229;-51
2023/06/19 06:38:49;;;;;;;3.40;3.20;;;;;;;21.26;95.69;98327.88;4137434;28;20228;-50
2023/06/19 06:40:52;;;;;;;3.58;3.38;;;;;;;21.26;95.63;98336.22;4173033;28;20215;-51
2023/06/19 06:42:53;;;;;;;3.55;3.25;;;;;;;21.15;96.21;98337.66;4144753;28;20212;-50
2023/06/19 06:44:55;;;;;;;7.30;3.42;;;;;;;21.33;95.76;98331.00;4141005;28;20239;-50
2023/06/19 06:46:57;;;;;;;3.67;3.38;;;;;;;21.59;95.06;98329.88;4155341;28;20205;-50
2023/06/19 06:48:58;;;;;;;3.30;2.67;;;;;;;21.70;94.82;98338.81;4155466;28;20214;-50
2023/06/19 06:51:01;;;;;;;4.63;3.38;;;;;;;21.87;93.30;98336.84;4143425;28;20219;-51
2023/06/19 06:53:03;;;;;;;4.10;3.22;;;;;;;21.92;93.34;98341.44;4141949;28;20209;-51
2023/06/19 06:55:05;;;;;;;3.03;2.83;;;;;;;21.96;93.23;98350.75;4137667;28;20319;-51
2023/06/19 06:57:06;;;;;;;3.65;2.60;;;;;;;21.97;92.33;98349.63;4134908;28;20209;-50
2023/06/19 06:59:08;;;;;;;4.60;3.95;;;;;;;22.12;91.39;98346.34;4139715;28;20240;-50
2023/06/19 07:01:09;;;;;;;20.85;3.63;;;;;;;22.22;90.88;98346.00;4153255;28;20200;-50
2023/06/19 07:03:11;;;;;;;2.72;2.53;;;;;;;22.12;90.76;98346.34;4168434;28;20704;-50
2023/06/19 07:05:13;;;;;;;3.00;2.45;;;;;;;22.21;91.65;98347.16;4142832;28;20750;-49
2023/06/19 07:07:15;;;;;;;4.97;3.22;;;;;;;22.19;90.88;98352.25;4171423;28;20618;-50
2023/06/19 07:09:21;;;;;;;4.43;3.83;;;;;;;22.20;91.60;98356.66;4152448;28;20200;-49
2023/06/19 07:11:23;;;;;;;6.22;3.90;;;;;;;22.03;91.37;98356.69;4138971;28;20204;-50
2023/06/19 07:13:25;;;;;;;7.32;4.22;;;;;;;22.28;90.67;98355.84;4146273;28;20232;-51
2023/06/19 07:15:29;;;;;;;6.47;3.47;;;;;;;22.26;89.91;98355.34;4167833;28;21060;-50
2023/06/19 07:17:31;;;;;;;3.88;3.58;;;;;;;21.75;91.83;98363.69;4136106;28;20679;-49
2023/06/19 07:19:33;;;;;;;6.07;3.75;;;;;;;21.93;93.25;98359.78;4163838;28;20211;-50
2023/06/19 07:21:35;;;;;;;3.25;2.95;;;;;;;22.15;92.58;98356.81;4118710;28;20222;-51
2023/06/19 07:23:36;;;;;;;2.80;2.60;;;;;;;22.25;91.43;98362.88;4136761;28;20264;-50
2023/06/19 07:25:38;;;;;;;3.08;2.88;;;;;;;22.31;91.05;98358.78;4135081;28;20725;-49
2023/06/19 07:27:40;;;;;;;6.10;2.70;;;;;;;22.49;90.12;98354.03;4139352;28;20208;-50
2023/06/19 07:29:44;;;;;;;3.70;3.45;;;;;;;22.62;90.01;98366.97;4142202;28;20227;-50
2023/06/19 07:31:45;;;;;;;3.80;3.00;;;;;;;22.36;89.25;98371.72;4152015;28;20317;-50
2023/06/19 07:33:47;;;;;;;2.67;2.47;;;;;;;22.40;90.13;98375.50;4146392;28;20296;-50
2023/06/19 07:35:49;;;;;;;3.53;3.10;;;;;;;22.56;89.55;98380.28;4153551;28;20225;-50
2023/06/19 07:37:51;;;;;;;3.60;3.30;;;;;;;22.50;89.73;98375.22;4137567;28;20695;-50
2023/06/19 07:39:52;;;;;;;3.80;3.40;;;;;;;22.89;88.50;98377.72;4141016;28;20683;-50
2023/06/19 07:41:57;;;;;;;3.38;3.08;;;;;;;22.87;87.50;98371.66;4153623;28;20211;-51
2023/06/19 07:44:00;;;;;;;2.75;2.55;;;;;;;23.36;86.28;98371.03;4157419;28;20256;-50
2023/06/19 07:46:02;;;;;;;6.95;3.67;;;;;;;23.72;84.93;98374.91;4146231;28;20256;-51
2023/06/19 07:48:04;;;;;;;4.65;3.35;;;;;;;23.87;83.86;98387.50;4140137;28;20236;-51
2023/06/19 07:50:06;;;;;;;5.97;3.03;;;;;;;23.80;82.46;98383.22;4125420;28;20216;-50
2023/06/19 07:52:12;;;;;;;3.28;2.80;;;;;;;23.66;82.74;98375.44;4154692;28;20732;-49
2023/06/19 07:54:14;;;;;;;3.75;2.83;;;;;;;23.54;82.41;98383.72;4151644;28;20204;-51
2023/06/19 07:56:15;;;;;;;3.03;2.63;;;;;;;23.53;81.87;98382.91;4135929;28;20235;-50
2023/06/19 07:58:22;;;;;;;3.00;2.80;;;;;;;23.81;80.44;98396.03;4139722;28;20282;-50
2023/06/19 08:00:39;;;;;;;3.72;2.97;;;;;;;24.23;79.55;98392.16;4150801;28;20201;-50
2023/06/19 08:02:42;;;;;;;4.35;2.95;;;;;;;24.69;79.11;98388.31;4167984;28;20214;-50
2023/06/19 08:04:45;;;;;;;4.43;3.15;;;;;;;24.80;78.76;98390.31;4143885;28;20224;-50
2023/06/19 08:06:47;;;;;;;6.03;2.90;;;;;;;24.62;78.36;98383.28;4153186;28;20219;-51
2023/06/19 08:08:49;;;;;;;4.47;3.05;;;;;;;24.43;78.90;98391.31;4137653;28;20757;-51
2023/06/19 08:10:50;;;;;;;6.57;3.42;;;;;;;24.62;79.29;98379.66;4141697;28;20271;-51
2023/06/19 08:12:52;;;;;;;3.70;2.63;;;;;;;25.02;76.33;98389.94;4151497;28;20212;-50
2023/06/19 08:14:54;;;;;;;3.10;2.55;;;;;;;24.95;74.25;98392.47;4137878;28;20229;-50
2023/06/19 08:16:56;;;;;;;1.90;1.80;;;;;;;25.35;72.12;98379.50;4123055;28;20234;-51
2023/06/19 08:18:58;;;;;;;1.98;1.88;;;;;;;25.31;72.85;98384.16;4143782;28;20291;-50
2023/06/19 08:21:00;;;;;;;3.25;2.30;;;;;;;25.02;72.48;98389.94;4137397;28;20671;-50
2023/06/19 08:23:02;;;;;;;2.60;2.08;;;;;;;25.28;71.58;98373.66;4171275;28;20216;-50
2023/06/19 08:25:07;;;;;;;3.60;2.22;;;;;;;25.17;72.47;98383.66;4143128;28;20316;-49
2023/06/19 08:27:09;;;;;;;6.25;2.30;;;;;;;25.53;71.38;98392.09;4154253;28;20205;-50
2023/06/19 08:29:11;;;;;;;2.15;1.88;;;;;;;25.40;71.16;98381.25;4137798;28;20301;-50
2023/06/19 08:31:12;;;;;;;2.55;2.33;;;;;;;25.19;73.07;98391.72;4140749;28;20256;-49
2023/06/19 08:33:14;;;;;;;3.33;1.75;;;;;;;25.21;71.07;98394.97;4167456;28;20297;-50
2023/06/19 08:35:16;;;;;;;2.67;1.92;;;;;;;24.83;72.13;98398.03;4145094;28;20239;-50
2023/06/19 08:37:18;;;;;;;3.15;2.95;;;;;;;24.93;73.31;98405.19;4144736;28;20229;-50
2023/06/19 08:39:22;;;;;;;3.95;2.13;;;;;;;25.20;73.13;98405.34;4136239;28;20210;-49
2023/06/19 08:41:25;;;;;;;4.13;2.72;;;;;;;25.17;73.51;98406.06;4136225;28;20212;-50
2023/06/19 08:43:28;;;;;;;3.88;2.83;;;;;;;24.79;74.89;98399.09;4135957;28;20212;-49
2023/06/19 08:45:30;;;;;;;3.22;2.80;;;;;;;24.70;75.50;98412.34;4136168;28;20247;-49
2023/06/19 08:47:32;;;;;;;3.92;2.85;;;;;;;24.09;75.83;98408.41;4141961;28;20739;-49
2023/06/19 08:49:35;;;;;;;3.40;2.95;;;;;;;23.93;77.77;98407.34;4168931;28;20234;-50
2023/06/19 08:51:36;;;;;;;4.78;2.53;;;;;;;24.23;78.92;98414.53;4167095;28;20257;-49
2023/06/19 08:53:47;;;;;;;3.45;3.15;;;;;;;24.16;77.15;98417.06;4169767;28;20204;-50
2023/06/19 08:55:50;;;;;;;2.40;2.20;;;;;;;24.55;76.38;98410.97;4137004;28;20683;-50
2023/06/19 08:57:52;;;;;;;2.80;2.60;;;;;;;24.78;74.04;98403.03;4166599;28;20207;-50
2023/06/19 08:59:54;;;;;;;2.88;2.40;;;;;;;24.86;74.99;98405.72;4156789;28;20655;-50
2023/06/19 09:01:56;;;;;;;2.80;2.42;;;;;;;24.97;72.42;98400.50;4171245;28;20699;-49
2023/06/19 09:03:57;;;;;;;2.55;2.35;;;;;;;24.80;72.08;98398.72;4139941;28;20209;-49
2023/06/19 09:06:03;;;;;;;5.43;2.20;;;;;;;25.14;72.99;98401.13;4164089;28;20224;-49
2023/06/19 09:08:05;;;;;;;4.20;2.15;;;;;;;25.50;71.62;98404.03;4148675;28;20598;-49
2023/06/19 09:10:17;;;;;;;3.83;2.70;;;;;;;25.96;71.47;98397.97;4132509;28;20534;-51
2023/06/19 09:12:19;;;;;;;3.35;2.33;;;;;;;26.36;67.75;98397.97;4153188;28;20607;-49
2023/06/19 09:14:24;;;;;;;6.15;2.35;;;;;;;25.75;69.38;98399.22;4165833;28;20203;-49
2023/06/19 09:16:37;;;;;;;2.20;1.90;;;;;;;25.89;68.57;98411.75;4169178;28;20266;-50
2023/06/19 09:18:47;;;;;;;1.90;1.75;;;;;;;26.08;67.52;98403.56;4134023;28;20216;-50
2023/06/19 09:20:54;;;;;;;2.28;1.65;;;;;;;26.24;67.39;98401.63;4133027;28;20219;-49
2023/06/19 09:22:56;;;;;;;1.85;1.60;;;;;;;26.81;64.18;98416.22;4140503;28;20209;-50
2023/06/19 09:25:02;;;;;;;2.17;1.30;;;;;;;26.24;63.43;98412.84;4136276;28;20272;-50
2023/06/19 09:27:17;;;;;;;2.65;1.70;;;;;;;26.31;63.57;98406.63;4137657;28;20208;-49
2023/06/19 09:29:19;;;;;;;3.92;1.77;;;;;;;26.26;64.70;98402.09;4139406;28;20244;-50
2023/06/19 09:31:32;;;;;;;1.83;1.67;;;;;;;25.90;65.36;98396.56;4142316;28;20252;-50
2023/06/19 09:33:35;;;;;;;2.55;1.60;;;;;;;26.03;63.94;98398.19;4170202;28;20218;-50
2023/06/19 09:35:37;;;;;;;2.58;1.60;;;;;;;26.48;63.65;98404.38;4144701;28;20254;-50